Time;durP1;ratioP1;P1;durP2;ratioP2;P2;SDS_P1;SDS_P2;PMS_P1;PMS_P2;Temp;Humidity;BMP_temperature;BMP_pressure;BME280_temperature;BME280_humidity;BME280_pressure;Samples;Min_cycle;Max_cycle;Signal;HPM_P1;HPM_P2
2022/11/30 00:00:32;;;;;;;61.90;34.90;;;;;;;;;;5081208;28;22290;-79
2022/11/30 00:03:00;;;;;;;65.53;35.35;;;;;;;;;;5078830;28;20433;-79
2022/11/30 00:05:27;;;;;;;65.95;37.17;;;;;;;;;;5074641;28;20416;-77
2022/11/30 00:07:54;;;;;;;66.05;36.47;;;;;;;;;;5081191;28;20431;-77
2022/11/30 00:10:21;;;;;;;72.57;37.88;;;;;;;;;;5080242;28;20426;-79
2022/11/30 00:12:47;;;;;;;65.57;37.28;;;;;;;;;;5083855;28;20903;-77
2022/11/30 00:15:16;;;;;;;68.82;37.80;;;;;;;;;;5080019;28;20419;-77
2022/11/30 00:17:42;;;;;;;66.20;37.97;;;;;;;;;;5077739;28;20550;-78
2022/11/30 00:20:11;;;;;;;72.93;38.88;;;;;;;;;;5079855;28;20865;-78
2022/11/30 00:22:37;;;;;;;77.15;38.88;;;;;;;;;;5077936;28;20410;-78
2022/11/30 00:25:04;;;;;;;69.72;39.65;;;;;;;;;;5077494;28;20421;-79
2022/11/30 00:27:31;;;;;;;77.17;39.97;;;;;;;;;;5077347;28;20410;-79
2022/11/30 00:29:58;;;;;;;70.88;39.28;;;;;;;;;;5077274;28;20855;-78
2022/11/30 00:32:25;;;;;;;69.10;38.40;;;;;;;;;;5078917;28;20412;-78
2022/11/30 00:34:51;;;;;;;66.95;38.00;;;;;;;;;;5080582;28;20418;-78
2022/11/30 00:37:19;;;;;;;74.03;39.92;;;;;;;;;;5079775;28;20427;-78
2022/11/30 00:39:46;;;;;;;71.95;39.45;;;;;;;;;;5079494;28;20419;-78
2022/11/30 00:42:12;;;;;;;79.63;39.90;;;;;;;;;;5079696;28;20411;-79
2022/11/30 00:44:39;;;;;;;80.15;41.03;;;;;;;;;;5063477;28;20517;-79
2022/11/30 00:47:05;;;;;;;71.40;38.15;;;;;;;;;;5061072;28;20423;-78
2022/11/30 00:49:33;;;;;;;81.22;40.60;;;;;;;;;;5070889;28;20438;-78
2022/11/30 00:52:00;;;;;;;75.40;39.30;;;;;;;;;;5083951;28;20952;-79
2022/11/30 00:54:28;;;;;;;75.90;39.45;;;;;;;;;;5080558;28;20419;-79
2022/11/30 00:56:54;;;;;;;81.22;40.38;;;;;;;;;;5081281;28;20425;-79
2022/11/30 00:59:21;;;;;;;76.88;39.65;;;;;;;;;;5077875;28;20930;-79
2022/11/30 01:01:48;;;;;;;78.15;40.60;;;;;;;;;;5084256;28;20411;-79
2022/11/30 01:04:14;;;;;;;76.32;39.85;;;;;;;;;;5081625;28;20421;-79
2022/11/30 01:06:41;;;;;;;82.68;41.80;;;;;;;;;;5078174;28;20414;-79
2022/11/30 01:09:08;;;;;;;72.63;40.35;;;;;;;;;;5083199;28;20406;-79
2022/11/30 01:11:35;;;;;;;76.70;41.17;;;;;;;;;;5085628;28;20413;-78
2022/11/30 01:14:02;;;;;;;73.97;40.60;;;;;;;;;;5082546;28;20409;-78
2022/11/30 01:16:29;;;;;;;80.85;40.97;;;;;;;;;;5075655;28;20419;-78
2022/11/30 01:18:56;;;;;;;74.22;39.17;;;;;;;;;;5083266;28;20422;-78
2022/11/30 01:21:24;;;;;;;76.68;39.22;;;;;;;;;;5079777;28;20409;-78
2022/11/30 01:23:50;;;;;;;69.57;39.05;;;;;;;;;;5077477;28;20857;-78
2022/11/30 01:26:17;;;;;;;71.82;38.45;;;;;;;;;;5064165;28;20424;-79
2022/11/30 01:28:45;;;;;;;76.22;40.20;;;;;;;;;;5081135;28;20421;-78
2022/11/30 01:31:12;;;;;;;74.88;39.65;;;;;;;;;;5077900;28;20423;-78
2022/11/30 01:33:39;;;;;;;76.90;40.40;;;;;;;;;;5077043;28;20410;-78
2022/11/30 01:36:07;;;;;;;71.72;40.30;;;;;;;;;;5075223;28;20399;-79
2022/11/30 01:38:34;;;;;;;73.85;39.10;;;;;;;;;;5075902;28;20423;-78
2022/11/30 01:41:01;;;;;;;78.87;40.33;;;;;;;;;;5075651;28;20927;-77
2022/11/30 01:43:37;;;;;;;71.00;39.10;;;;;;;;;;5081754;28;20412;-78
2022/11/30 01:46:05;;;;;;;78.25;40.20;;;;;;;;;;5075991;28;20425;-77
2022/11/30 01:48:32;;;;;;;81.10;40.13;;;;;;;;;;5081112;28;20839;-77
2022/11/30 01:50:58;;;;;;;86.47;41.03;;;;;;;;;;5077679;28;20418;-78
2022/11/30 01:53:24;;;;;;;81.57;39.33;;;;;;;;;;5078076;28;20446;-79
2022/11/30 01:55:51;;;;;;;79.45;41.92;;;;;;;;;;5075249;28;20415;-78
2022/11/30 01:58:24;;;;;;;85.38;42.75;;;;;;;;;;5077156;28;20427;-79
2022/11/30 02:00:51;;;;;;;74.60;40.67;;;;;;;;;;5071201;28;20426;-78
2022/11/30 02:03:23;;;;;;;78.70;41.05;;;;;;;;;;5078163;28;20423;-78
2022/11/30 02:05:49;;;;;;;91.87;43.17;;;;;;;;;;5083245;28;20494;-79
2022/11/30 02:08:17;;;;;;;84.15;40.47;;;;;;;;;;5082577;28;20785;-78
2022/11/30 02:10:45;;;;;;;83.72;40.38;;;;;;;;;;5076238;28;20421;-79
2022/11/30 02:13:20;;;;;;;87.85;41.63;;;;;;;;;;5077921;28;20432;-78
2022/11/30 02:15:52;;;;;;;81.47;41.80;;;;;;;;;;5079533;28;20419;-78
2022/11/30 02:18:24;;;;;;;95.17;43.87;;;;;;;;;;5075888;28;20432;-79
2022/11/30 02:20:57;;;;;;;93.97;44.50;;;;;;;;;;5078550;28;20440;-80
2022/11/30 02:23:50;;;;;;;93.47;44.65;;;;;;;;;;5075246;28;20444;-79
2022/11/30 02:26:39;;;;;;;105.75;45.95;;;;;;;;;;5032218;28;20454;-79
2022/11/30 02:29:14;;;;;;;92.40;44.08;;;;;;;;;;5075237;28;20413;-79
2022/11/30 02:31:43;;;;;;;95.20;44.30;;;;;;;;;;5077511;28;20410;-79
2022/11/30 02:34:12;;;;;;;92.82;45.50;;;;;;;;;;5076259;28;20410;-79
2022/11/30 02:36:39;;;;;;;100.82;45.72;;;;;;;;;;5080866;28;20427;-79
2022/11/30 02:39:07;;;;;;;99.30;45.20;;;;;;;;;;5080450;28;20410;-79
2022/11/30 02:41:38;;;;;;;95.33;44.77;;;;;;;;;;5079688;28;20434;-79
2022/11/30 02:44:06;;;;;;;97.18;45.67;;;;;;;;;;5075544;28;20430;-79
2022/11/30 02:46:36;;;;;;;99.25;45.00;;;;;;;;;;5076246;28;20422;-79
2022/11/30 02:49:10;;;;;;;97.73;44.90;;;;;;;;;;5077764;28;20417;-79
2022/11/30 02:51:37;;;;;;;98.22;46.22;;;;;;;;;;5076815;28;20426;-80
2022/11/30 02:54:03;;;;;;;99.13;44.08;;;;;;;;;;5079276;28;20411;-80
2022/11/30 02:56:30;;;;;;;91.35;44.95;;;;;;;;;;5081584;28;20403;-79
2022/11/30 02:58:58;;;;;;;96.20;44.43;;;;;;;;;;5085174;28;20418;-80
2022/11/30 03:01:25;;;;;;;96.43;44.35;;;;;;;;;;5082495;28;20426;-78
2022/11/30 03:03:53;;;;;;;96.82;44.97;;;;;;;;;;5082818;28;20418;-77
2022/11/30 03:06:19;;;;;;;97.18;44.47;;;;;;;;;;5072958;28;20423;-78
2022/11/30 03:08:46;;;;;;;98.45;44.63;;;;;;;;;;5076958;28;21235;-78
2022/11/30 03:11:12;;;;;;;90.50;44.47;;;;;;;;;;5080994;28;20402;-79
2022/11/30 03:13:38;;;;;;;101.78;44.83;;;;;;;;;;5082996;28;20417;-78
2022/11/30 03:16:07;;;;;;;103.47;45.25;;;;;;;;;;5079957;28;20414;-78
2022/11/30 03:18:33;;;;;;;111.90;46.50;;;;;;;;;;5078640;28;20434;-78
2022/11/30 03:21:01;;;;;;;101.82;47.10;;;;;;;;;;5082940;28;20425;-79
2022/11/30 03:23:28;;;;;;;103.20;45.30;;;;;;;;;;5079254;28;20415;-80
2022/11/30 03:25:59;;;;;;;101.95;45.33;;;;;;;;;;5080135;28;20427;-77
2022/11/30 03:28:26;;;;;;;104.07;46.00;;;;;;;;;;5079799;28;20415;-80
2022/11/30 03:30:52;;;;;;;105.15;46.70;;;;;;;;;;5079098;28;20415;-77
2022/11/30 03:33:19;;;;;;;106.65;46.03;;;;;;;;;;5076657;28;20400;-78
2022/11/30 03:35:46;;;;;;;107.97;45.70;;;;;;;;;;5078822;28;20415;-77
2022/11/30 03:38:14;;;;;;;114.00;45.53;;;;;;;;;;5079737;28;20442;-77
2022/11/30 03:40:40;;;;;;;105.75;46.22;;;;;;;;;;5077138;28;20426;-78
2022/11/30 03:43:07;;;;;;;114.25;46.22;;;;;;;;;;5082399;28;20925;-77
2022/11/30 03:45:33;;;;;;;117.05;47.40;;;;;;;;;;5079355;28;20429;-77
2022/11/30 03:47:59;;;;;;;107.13;47.28;;;;;;;;;;5079118;28;20420;-77
2022/11/30 03:50:27;;;;;;;111.40;46.33;;;;;;;;;;5076946;28;20418;-77
2022/11/30 03:52:54;;;;;;;114.33;48.33;;;;;;;;;;5082464;28;20422;-78
2022/11/30 03:55:21;;;;;;;106.43;46.15;;;;;;;;;;5075037;28;20952;-77
2022/11/30 03:57:48;;;;;;;102.18;45.30;;;;;;;;;;5074045;28;20798;-79
2022/11/30 04:00:15;;;;;;;103.20;46.00;;;;;;;;;;5079042;28;20410;-78
2022/11/30 04:02:42;;;;;;;101.53;44.43;;;;;;;;;;5083462;28;20926;-77
2022/11/30 04:05:09;;;;;;;97.28;45.85;;;;;;;;;;5079260;28;20423;-79
2022/11/30 04:07:36;;;;;;;100.50;45.30;;;;;;;;;;5080346;28;20408;-79
2022/11/30 04:10:04;;;;;;;104.78;46.08;;;;;;;;;;5083845;28;20421;-79
2022/11/30 04:12:31;;;;;;;107.75;45.95;;;;;;;;;;5084427;28;20406;-79
2022/11/30 04:14:59;;;;;;;99.30;46.63;;;;;;;;;;5077199;28;20430;-78
2022/11/30 04:17:26;;;;;;;99.57;46.40;;;;;;;;;;5080767;28;20421;-77
2022/11/30 04:19:52;;;;;;;100.30;45.63;;;;;;;;;;5076686;28;20420;-78
2022/11/30 04:22:19;;;;;;;102.33;45.67;;;;;;;;;;5079832;28;20426;-79
2022/11/30 04:24:46;;;;;;;101.20;44.78;;;;;;;;;;5081446;28;20420;-79
2022/11/30 04:27:12;;;;;;;106.55;46.40;;;;;;;;;;5078311;28;20425;-78
2022/11/30 04:29:41;;;;;;;98.95;45.08;;;;;;;;;;5081416;28;20417;-79
2022/11/30 04:32:07;;;;;;;97.05;44.20;;;;;;;;;;5063252;28;20914;-79
2022/11/30 04:34:33;;;;;;;99.67;44.17;;;;;;;;;;5076389;28;21055;-77
2022/11/30 04:37:00;;;;;;;107.10;46.35;;;;;;;;;;5077849;28;20895;-77
2022/11/30 04:39:26;;;;;;;98.93;45.53;;;;;;;;;;5073340;28;20432;-79
2022/11/30 04:41:53;;;;;;;106.53;47.92;;;;;;;;;;5081217;28;20408;-77
2022/11/30 04:44:19;;;;;;;108.40;49.05;;;;;;;;;;5075697;28;20409;-78
2022/11/30 04:46:48;;;;;;;106.93;48.65;;;;;;;;;;5075696;28;20432;-80
2022/11/30 04:49:15;;;;;;;114.30;48.50;;;;;;;;;;5080485;28;20417;-77
2022/11/30 04:51:41;;;;;;;125.10;50.53;;;;;;;;;;5063248;28;20406;-78
2022/11/30 04:54:08;;;;;;;106.80;48.90;;;;;;;;;;5078133;28;20446;-78
2022/11/30 04:56:34;;;;;;;109.22;47.75;;;;;;;;;;5080140;28;20402;-77
2022/11/30 04:59:00;;;;;;;111.50;48.17;;;;;;;;;;5075236;28;20398;-77
2022/11/30 05:01:27;;;;;;;112.43;49.27;;;;;;;;;;5077193;28;20425;-77
2022/11/30 05:03:55;;;;;;;111.53;46.60;;;;;;;;;;5074981;28;20986;-77
2022/11/30 05:06:22;;;;;;;106.50;46.65;;;;;;;;;;5075030;28;20449;-79
2022/11/30 05:08:48;;;;;;;100.90;46.10;;;;;;;;;;5073571;28;20428;-78
2022/11/30 05:11:14;;;;;;;110.93;47.33;;;;;;;;;;5079696;28;20434;-78
2022/11/30 05:13:41;;;;;;;107.35;46.38;;;;;;;;;;5081836;28;20416;-77
2022/11/30 05:16:09;;;;;;;108.20;46.45;;;;;;;;;;5079593;28;20780;-77
2022/11/30 05:18:35;;;;;;;116.28;48.95;;;;;;;;;;5078009;28;20437;-78
2022/11/30 05:21:03;;;;;;;123.20;49.72;;;;;;;;;;5082990;28;20421;-78
2022/11/30 05:23:30;;;;;;;107.35;48.35;;;;;;;;;;5065259;28;20412;-78
2022/11/30 05:25:56;;;;;;;111.50;48.63;;;;;;;;;;5076173;28;20419;-79
2022/11/30 05:28:24;;;;;;;117.05;48.03;;;;;;;;;;5085637;28;20401;-79
2022/11/30 05:30:51;;;;;;;120.80;48.55;;;;;;;;;;5079982;28;20423;-79
2022/11/30 05:33:17;;;;;;;120.03;49.13;;;;;;;;;;5081507;28;20446;-79
2022/11/30 05:35:44;;;;;;;110.47;47.13;;;;;;;;;;5080495;28;20768;-79
2022/11/30 05:38:11;;;;;;;124.43;49.17;;;;;;;;;;5079358;28;20420;-79
2022/11/30 05:40:38;;;;;;;127.20;48.78;;;;;;;;;;5077900;28;20429;-78
2022/11/30 05:43:05;;;;;;;117.63;50.17;;;;;;;;;;5074639;28;20433;-77
2022/11/30 05:45:31;;;;;;;127.45;51.60;;;;;;;;;;5076701;28;20427;-77
2022/11/30 05:47:58;;;;;;;117.60;48.40;;;;;;;;;;5082903;28;20436;-77
2022/11/30 05:50:25;;;;;;;115.03;47.95;;;;;;;;;;5077585;28;20432;-77
2022/11/30 05:52:52;;;;;;;118.88;48.92;;;;;;;;;;5075131;28;20795;-77
2022/11/30 05:55:20;;;;;;;124.47;51.05;;;;;;;;;;5078744;28;20420;-78
2022/11/30 05:57:46;;;;;;;102.05;46.90;;;;;;;;;;5075036;28;20915;-78
2022/11/30 06:00:14;;;;;;;104.30;46.15;;;;;;;;;;5076568;28;20430;-77
2022/11/30 06:02:40;;;;;;;112.17;47.67;;;;;;;;;;5081338;28;20483;-78
2022/11/30 06:05:07;;;;;;;102.07;45.40;;;;;;;;;;5078797;28;20466;-78
2022/11/30 06:07:33;;;;;;;103.45;44.42;;;;;;;;;;5075626;28;20447;-77
2022/11/30 06:10:00;;;;;;;108.45;44.30;;;;;;;;;;5078411;28;20422;-77
2022/11/30 06:12:27;;;;;;;98.35;45.88;;;;;;;;;;5076440;28;20943;-77
2022/11/30 06:14:54;;;;;;;110.97;47.65;;;;;;;;;;5074234;28;20421;-77
2022/11/30 06:17:20;;;;;;;99.70;44.70;;;;;;;;;;5079724;28;20423;-79
2022/11/30 06:19:46;;;;;;;119.87;46.97;;;;;;;;;;5080658;28;20418;-79
2022/11/30 06:22:13;;;;;;;110.38;46.38;;;;;;;;;;5077750;28;20442;-79
2022/11/30 06:24:39;;;;;;;108.57;46.25;;;;;;;;;;5083658;28;20424;-78
2022/11/30 06:27:06;;;;;;;118.70;48.47;;;;;;;;;;5082368;28;20431;-79
2022/11/30 06:29:33;;;;;;;114.40;47.03;;;;;;;;;;5083756;28;20414;-79
2022/11/30 06:32:00;;;;;;;107.72;46.85;;;;;;;;;;5077682;28;20443;-78
2022/11/30 06:34:26;;;;;;;119.30;47.22;;;;;;;;;;5077265;28;20428;-78
2022/11/30 06:36:52;;;;;;;120.50;47.95;;;;;;;;;;5083067;28;20430;-78
2022/11/30 06:39:19;;;;;;;108.25;46.88;;;;;;;;;;5074541;28;20420;-79
2022/11/30 06:41:45;;;;;;;124.67;47.63;;;;;;;;;;5085800;28;20419;-79
2022/11/30 06:44:12;;;;;;;115.72;46.72;;;;;;;;;;5057183;28;20406;-78
2022/11/30 06:46:39;;;;;;;121.18;49.17;;;;;;;;;;5072915;28;20427;-78
2022/11/30 06:49:06;;;;;;;122.22;48.50;;;;;;;;;;5072316;28;21203;-78
2022/11/30 06:51:33;;;;;;;113.00;46.10;;;;;;;;;;5082464;28;20418;-77
2022/11/30 06:53:59;;;;;;;109.60;46.45;;;;;;;;;;5082280;28;20411;-77
2022/11/30 06:56:25;;;;;;;102.47;44.92;;;;;;;;;;5081032;28;20399;-78
2022/11/30 06:58:53;;;;;;;105.22;44.22;;;;;;;;;;5078625;28;20901;-77
2022/11/30 07:01:19;;;;;;;107.90;45.22;;;;;;;;;;5081642;28;20432;-78
2022/11/30 07:03:47;;;;;;;101.55;44.25;;;;;;;;;;5081762;28;20896;-78
2022/11/30 07:06:14;;;;;;;101.53;43.30;;;;;;;;;;5082527;28;20427;-79
2022/11/30 07:08:41;;;;;;;96.10;42.33;;;;;;;;;;5084333;28;20415;-79
2022/11/30 07:11:08;;;;;;;104.28;45.38;;;;;;;;;;5080549;28;20415;-77
2022/11/30 07:13:35;;;;;;;105.57;44.25;;;;;;;;;;5066216;28;20414;-78
2022/11/30 07:16:03;;;;;;;98.88;44.10;;;;;;;;;;5081157;28;20418;-77
2022/11/30 07:18:29;;;;;;;102.43;45.78;;;;;;;;;;5074567;28;20434;-78
2022/11/30 07:20:58;;;;;;;102.03;45.42;;;;;;;;;;5082519;28;20423;-79
2022/11/30 07:26:08;;;;;;;109.60;45.50;;;;;;;;;;5076438;28;20431;-79
2022/11/30 07:28:35;;;;;;;108.38;46.15;;;;;;;;;;5079643;28;20414;-78
2022/11/30 07:31:03;;;;;;;114.90;48.47;;;;;;;;;;5076691;28;20421;-79
2022/11/30 07:33:30;;;;;;;117.03;47.42;;;;;;;;;;5084725;28;20432;-78
2022/11/30 07:35:58;;;;;;;115.15;46.70;;;;;;;;;;5085339;28;20419;-79
2022/11/30 07:38:25;;;;;;;117.28;47.42;;;;;;;;;;5081113;28;20404;-79
2022/11/30 07:40:51;;;;;;;117.32;48.17;;;;;;;;;;5082260;28;20959;-79
2022/11/30 07:43:17;;;;;;;125.63;48.43;;;;;;;;;;5084020;28;20762;-78
2022/11/30 07:45:51;;;;;;;118.45;48.55;;;;;;;;;;5079985;28;20427;-79
2022/11/30 07:48:17;;;;;;;116.88;48.35;;;;;;;;;;5082076;28;20407;-79
2022/11/30 07:50:43;;;;;;;120.18;49.38;;;;;;;;;;5082824;28;20417;-77
2022/11/30 07:53:11;;;;;;;122.95;48.75;;;;;;;;;;5077403;28;20418;-77
2022/11/30 07:55:37;;;;;;;126.05;50.63;;;;;;;;;;5070665;28;20420;-77
2022/11/30 07:58:04;;;;;;;131.23;52.92;;;;;;;;;;5079889;28;20411;-78
2022/11/30 08:00:30;;;;;;;133.75;52.88;;;;;;;;;;5077074;28;20421;-78
2022/11/30 08:02:57;;;;;;;118.88;49.53;;;;;;;;;;5080461;28;20407;-77
2022/11/30 08:05:24;;;;;;;117.47;50.33;;;;;;;;;;5082057;28;20499;-78
2022/11/30 08:07:51;;;;;;;123.53;51.05;;;;;;;;;;5079194;28;20434;-78
2022/11/30 08:10:19;;;;;;;124.15;51.20;;;;;;;;;;5081828;28;20414;-78
2022/11/30 08:12:45;;;;;;;120.22;51.47;;;;;;;;;;5074425;28;20438;-78
2022/11/30 08:15:13;;;;;;;124.65;51.28;;;;;;;;;;5076598;28;20430;-78
2022/11/30 08:17:40;;;;;;;137.77;53.55;;;;;;;;;;5078172;28;20973;-78
2022/11/30 08:20:06;;;;;;;121.25;52.65;;;;;;;;;;5072607;28;20427;-78
2022/11/30 08:22:33;;;;;;;134.07;56.10;;;;;;;;;;5076705;28;20923;-78
2022/11/30 08:25:00;;;;;;;131.32;54.05;;;;;;;;;;5083902;28;20415;-78
2022/11/30 08:27:28;;;;;;;136.95;56.58;;;;;;;;;;5081646;28;21132;-78
2022/11/30 08:29:55;;;;;;;128.67;53.67;;;;;;;;;;5078036;28;20421;-78
2022/11/30 08:32:22;;;;;;;129.02;54.45;;;;;;;;;;5078142;28;20797;-77
2022/11/30 08:34:48;;;;;;;134.52;53.60;;;;;;;;;;5078964;28;20780;-78
2022/11/30 08:37:15;;;;;;;126.43;55.55;;;;;;;;;;5078273;28;20398;-79
2022/11/30 08:39:42;;;;;;;126.97;53.38;;;;;;;;;;5084174;28;20416;-80
2022/11/30 08:42:08;;;;;;;134.02;55.10;;;;;;;;;;5073919;28;20768;-78
2022/11/30 08:44:36;;;;;;;121.53;53.17;;;;;;;;;;5085217;28;20410;-78
2022/11/30 08:47:02;;;;;;;125.28;52.75;;;;;;;;;;5079151;28;20932;-77
2022/11/30 08:49:29;;;;;;;117.88;53.22;;;;;;;;;;5082076;28;20930;-81
2022/11/30 08:51:56;;;;;;;124.65;51.60;;;;;;;;;;5075234;28;20419;-79
2022/11/30 08:54:22;;;;;;;124.28;52.28;;;;;;;;;;5085183;28;20863;-79
2022/11/30 08:56:49;;;;;;;120.53;53.55;;;;;;;;;;5071850;28;20408;-77
2022/11/30 08:59:15;;;;;;;113.97;49.60;;;;;;;;;;5076470;28;20423;-78
2022/11/30 09:01:43;;;;;;;123.43;52.90;;;;;;;;;;5079531;28;20407;-78
2022/11/30 09:04:09;;;;;;;123.65;53.88;;;;;;;;;;5078748;28;20412;-78
2022/11/30 09:06:36;;;;;;;124.22;52.70;;;;;;;;;;5078742;28;20434;-77
2022/11/30 09:09:02;;;;;;;140.40;53.07;;;;;;;;;;5078418;28;20418;-79
2022/11/30 09:11:30;;;;;;;117.10;52.22;;;;;;;;;;5087503;28;20411;-78
2022/11/30 09:13:58;;;;;;;116.05;51.55;;;;;;;;;;5084709;28;20887;-79
2022/11/30 09:16:24;;;;;;;122.88;53.03;;;;;;;;;;5081417;28;20948;-78
2022/11/30 09:18:52;;;;;;;126.28;54.22;;;;;;;;;;5082230;28;20427;-79
2022/11/30 09:21:20;;;;;;;118.72;51.95;;;;;;;;;;5083308;28;20413;-79
2022/11/30 09:23:48;;;;;;;123.13;53.70;;;;;;;;;;5082983;28;20416;-78
2022/11/30 09:26:16;;;;;;;126.65;53.42;;;;;;;;;;5081972;28;20895;-77
2022/11/30 09:28:43;;;;;;;128.98;54.83;;;;;;;;;;5079103;28;20427;-77
2022/11/30 09:31:11;;;;;;;116.97;51.65;;;;;;;;;;5088613;28;20425;-79
2022/11/30 09:33:37;;;;;;;129.30;54.47;;;;;;;;;;5079109;28;20415;-78
2022/11/30 09:36:06;;;;;;;120.73;52.80;;;;;;;;;;5087664;28;20419;-78
2022/11/30 09:38:33;;;;;;;122.15;53.35;;;;;;;;;;5082462;28;20791;-78
2022/11/30 09:41:01;;;;;;;133.80;55.97;;;;;;;;;;5085939;28;20415;-78
2022/11/30 09:43:40;;;;;;;136.02;56.78;;;;;;;;;;5083593;28;20411;-79
2022/11/30 09:46:08;;;;;;;121.55;52.95;;;;;;;;;;5080457;28;20411;-78
2022/11/30 09:48:53;;;;;;;127.68;53.03;;;;;;;;;;5088019;28;20473;-78
2022/11/30 09:51:23;;;;;;;116.40;52.47;;;;;;;;;;5081158;28;20923;-79
2022/11/30 09:53:52;;;;;;;119.75;52.17;;;;;;;;;;5080397;28;20419;-79
2022/11/30 09:56:21;;;;;;;127.13;52.80;;;;;;;;;;5082082;28;20416;-79
2022/11/30 09:58:51;;;;;;;124.55;52.70;;;;;;;;;;5065842;28;20410;-79
2022/11/30 10:01:19;;;;;;;134.00;54.65;;;;;;;;;;5087325;28;20417;-79
2022/11/30 10:03:45;;;;;;;128.40;55.03;;;;;;;;;;5089597;28;20426;-78
2022/11/30 10:06:15;;;;;;;125.68;54.80;;;;;;;;;;5080391;28;20420;-80
2022/11/30 10:08:50;;;;;;;120.93;51.75;;;;;;;;;;5062337;28;20425;-78
2022/11/30 10:11:25;;;;;;;114.22;50.83;;;;;;;;;;5084354;28;20418;-79
2022/11/30 10:13:58;;;;;;;119.75;52.60;;;;;;;;;;5082930;28;20416;-77
2022/11/30 10:16:31;;;;;;;122.53;52.25;;;;;;;;;;5083585;28;20416;-78
2022/11/30 10:19:00;;;;;;;124.60;53.72;;;;;;;;;;5085163;28;20412;-79
2022/11/30 10:21:36;;;;;;;126.90;53.13;;;;;;;;;;5063125;28;20427;-80
2022/11/30 10:24:14;;;;;;;132.63;54.60;;;;;;;;;;5075915;28;20410;-78
2022/11/30 10:26:42;;;;;;;128.82;52.95;;;;;;;;;;5078983;28;20403;-80
2022/11/30 10:29:14;;;;;;;142.52;56.80;;;;;;;;;;5076911;28;20406;-79
2022/11/30 10:31:43;;;;;;;132.90;54.92;;;;;;;;;;5080601;28;20414;-77
2022/11/30 10:34:17;;;;;;;133.07;54.53;;;;;;;;;;5080514;28;20996;-78
2022/11/30 10:36:45;;;;;;;137.05;53.88;;;;;;;;;;5081625;28;20441;-77
2022/11/30 10:39:18;;;;;;;133.77;55.05;;;;;;;;;;5080938;28;20834;-78
2022/11/30 10:41:47;;;;;;;130.32;52.45;;;;;;;;;;5084607;28;20430;-77
2022/11/30 10:44:16;;;;;;;129.93;53.70;;;;;;;;;;5082028;28;20408;-78
2022/11/30 10:46:45;;;;;;;130.60;55.30;;;;;;;;;;5061236;28;20426;-78
2022/11/30 10:49:14;;;;;;;125.22;51.45;;;;;;;;;;5079755;28;20450;-79
2022/11/30 10:51:42;;;;;;;125.88;53.33;;;;;;;;;;5085870;28;20410;-79
2022/11/30 10:54:13;;;;;;;124.28;50.75;;;;;;;;;;5084958;28;20411;-78
2022/11/30 10:56:41;;;;;;;138.23;54.53;;;;;;;;;;5088183;28;20772;-77
2022/11/30 10:59:11;;;;;;;121.53;51.45;;;;;;;;;;5074787;28;20936;-79
2022/11/30 11:01:39;;;;;;;126.65;56.00;;;;;;;;;;5086430;28;20412;-78
2022/11/30 11:04:10;;;;;;;126.30;53.58;;;;;;;;;;5081840;28;20404;-79
2022/11/30 11:06:41;;;;;;;145.82;55.33;;;;;;;;;;5067732;28;20555;-79
2022/11/30 11:09:22;;;;;;;136.15;54.33;;;;;;;;;;5076845;28;20419;-78
2022/11/30 11:11:52;;;;;;;135.65;53.95;;;;;;;;;;5078817;28;20427;-78
2022/11/30 11:14:20;;;;;;;140.48;56.65;;;;;;;;;;5077398;28;20410;-77
2022/11/30 11:16:51;;;;;;;137.27;55.10;;;;;;;;;;5081246;28;20506;-79
2022/11/30 11:19:25;;;;;;;138.23;54.47;;;;;;;;;;5083922;28;20442;-78
2022/11/30 11:21:52;;;;;;;141.10;54.28;;;;;;;;;;5082839;28;20406;-78
2022/11/30 11:24:19;;;;;;;137.10;57.28;;;;;;;;;;5077106;28;20439;-79
2022/11/30 11:26:48;;;;;;;134.20;54.63;;;;;;;;;;5085361;28;20469;-78
2022/11/30 11:29:32;;;;;;;137.53;54.20;;;;;;;;;;5075166;28;20410;-77
2022/11/30 11:32:06;;;;;;;126.40;53.90;;;;;;;;;;5087162;28;20547;-81
2022/11/30 11:34:33;;;;;;;132.03;56.10;;;;;;;;;;5080204;28;20489;-79
2022/11/30 11:37:06;;;;;;;129.43;51.92;;;;;;;;;;5079980;28;21003;-80
2022/11/30 11:39:33;;;;;;;132.10;54.33;;;;;;;;;;5078177;28;20573;-79
2022/11/30 11:42:00;;;;;;;135.07;54.70;;;;;;;;;;5081425;28;20415;-80
2022/11/30 11:44:28;;;;;;;127.88;52.65;;;;;;;;;;5084423;28;20414;-78
2022/11/30 11:46:56;;;;;;;129.88;51.97;;;;;;;;;;5080791;28;20927;-77
2022/11/30 11:49:24;;;;;;;126.00;52.55;;;;;;;;;;5083125;28;20426;-78
2022/11/30 11:51:59;;;;;;;123.65;52.22;;;;;;;;;;5081555;28;20407;-78
2022/11/30 11:54:29;;;;;;;131.40;53.60;;;;;;;;;;5083083;28;20414;-78
2022/11/30 11:56:59;;;;;;;123.25;53.80;;;;;;;;;;5076520;28;20452;-78
2022/11/30 11:59:36;;;;;;;130.00;52.58;;;;;;;;;;5084378;28;20416;-79
2022/11/30 12:02:05;;;;;;;128.10;53.00;;;;;;;;;;5084119;28;20423;-78
2022/11/30 12:04:44;;;;;;;116.55;50.78;;;;;;;;;;5085466;28;20411;-80
2022/11/30 12:07:17;;;;;;;120.10;50.40;;;;;;;;;;5076220;28;20418;-80
2022/11/30 12:09:49;;;;;;;114.95;51.58;;;;;;;;;;5081237;28;20423;-80
2022/11/30 12:12:15;;;;;;;113.20;49.33;;;;;;;;;;5084191;28;20416;-80
2022/11/30 12:14:43;;;;;;;120.93;52.47;;;;;;;;;;5083837;28;20400;-79
2022/11/30 12:17:17;;;;;;;121.03;51.40;;;;;;;;;;5084070;28;20427;-79
2022/11/30 12:19:48;;;;;;;123.75;51.10;;;;;;;;;;5084006;28;20408;-79
2022/11/30 12:22:24;;;;;;;111.65;50.28;;;;;;;;;;5076333;28;20415;-79
2022/11/30 12:24:59;;;;;;;116.57;51.25;;;;;;;;;;5081466;28;20421;-79
2022/11/30 12:27:33;;;;;;;113.17;48.27;;;;;;;;;;5075300;28;20429;-79
2022/11/30 12:30:08;;;;;;;112.15;47.40;;;;;;;;;;5077905;28;20422;-79
2022/11/30 12:32:42;;;;;;;111.93;48.13;;;;;;;;;;5078336;28;20763;-80
2022/11/30 12:35:26;;;;;;;108.33;48.30;;;;;;;;;;5079415;28;20504;-79
2022/11/30 12:37:59;;;;;;;110.05;47.80;;;;;;;;;;5078832;28;20793;-80
2022/11/30 12:40:32;;;;;;;106.22;46.72;;;;;;;;;;5075886;28;20814;-78
2022/11/30 12:43:03;;;;;;;97.82;45.03;;;;;;;;;;5078912;28;20446;-79
2022/11/30 12:45:35;;;;;;;102.68;45.00;;;;;;;;;;5079353;28;20425;-78
2022/11/30 12:48:05;;;;;;;99.57;44.20;;;;;;;;;;5074689;28;20508;-79
2022/11/30 12:50:42;;;;;;;101.90;44.67;;;;;;;;;;5074374;28;20423;-79
2022/11/30 12:53:13;;;;;;;100.55;46.08;;;;;;;;;;5078968;28;20434;-79
2022/11/30 12:55:44;;;;;;;103.28;44.08;;;;;;;;;;5062141;28;20419;-80
2022/11/30 12:58:15;;;;;;;102.80;45.72;;;;;;;;;;5078280;28;20456;-79
2022/11/30 13:00:50;;;;;;;113.30;47.33;;;;;;;;;;5078303;28;20418;-77
2022/11/30 13:03:32;;;;;;;106.45;48.28;;;;;;;;;;5081408;28;20429;-79
2022/11/30 13:06:01;;;;;;;103.35;46.40;;;;;;;;;;5071078;28;20432;-80
2022/11/30 13:08:28;;;;;;;106.88;48.10;;;;;;;;;;5077253;28;20431;-78
2022/11/30 13:10:56;;;;;;;107.78;48.15;;;;;;;;;;5080884;28;20422;-78
2022/11/30 13:13:25;;;;;;;107.85;46.63;;;;;;;;;;5082576;28;20410;-79
2022/11/30 13:15:53;;;;;;;106.65;46.72;;;;;;;;;;5083673;28;20470;-79
2022/11/30 13:18:20;;;;;;;96.05;45.45;;;;;;;;;;5077128;28;20408;-79
2022/11/30 13:20:50;;;;;;;96.32;45.72;;;;;;;;;;5066127;28;20927;-77
2022/11/30 13:23:20;;;;;;;93.03;42.38;;;;;;;;;;5078145;28;20446;-78
2022/11/30 13:25:48;;;;;;;97.03;44.50;;;;;;;;;;5077174;28;20418;-77
2022/11/30 13:28:20;;;;;;;80.57;42.30;;;;;;;;;;5074139;28;20431;-78
2022/11/30 13:30:49;;;;;;;86.22;43.47;;;;;;;;;;5077502;28;20435;-78
2022/11/30 13:33:34;;;;;;;95.15;42.60;;;;;;;;;;5068953;28;20529;-77
2022/11/30 13:36:05;;;;;;;93.60;44.08;;;;;;;;;;5074169;28;20427;-78
2022/11/30 13:38:32;;;;;;;94.82;43.63;;;;;;;;;;5077018;28;20430;-79
2022/11/30 13:41:00;;;;;;;99.32;45.60;;;;;;;;;;5078737;28;20438;-78
2022/11/30 13:43:28;;;;;;;95.93;44.20;;;;;;;;;;5075379;28;20428;-79
2022/11/30 13:46:05;;;;;;;96.37;46.70;;;;;;;;;;5078936;28;20422;-78
2022/11/30 13:48:32;;;;;;;95.37;45.23;;;;;;;;;;5081284;28;20457;-79
2022/11/30 13:50:59;;;;;;;98.13;47.72;;;;;;;;;;5078406;28;20473;-79
2022/11/30 13:53:27;;;;;;;107.65;47.90;;;;;;;;;;5076282;28;20410;-77
2022/11/30 13:55:57;;;;;;;106.00;48.83;;;;;;;;;;5079478;28;20422;-77
2022/11/30 13:58:24;;;;;;;110.10;48.72;;;;;;;;;;5084556;28;20427;-77
2022/11/30 14:01:24;;;;;;;107.95;49.80;;;;;;;;;;5082126;28;20423;-77
2022/11/30 14:04:09;;;;;;;113.25;50.80;;;;;;;;;;5083685;28;20418;-79
2022/11/30 14:06:47;;;;;;;108.47;49.50;;;;;;;;;;5080949;28;20411;-79
2022/11/30 14:09:15;;;;;;;106.13;50.30;;;;;;;;;;5079010;28;20409;-79
2022/11/30 14:11:42;;;;;;;112.78;51.10;;;;;;;;;;5080650;28;20907;-79
2022/11/30 14:14:28;;;;;;;112.27;48.87;;;;;;;;;;5080454;28;20481;-79
2022/11/30 14:16:54;;;;;;;107.65;49.63;;;;;;;;;;5080111;28;20419;-80
2022/11/30 14:19:21;;;;;;;114.07;50.28;;;;;;;;;;5083513;28;20909;-79